sensor_id;sensor_type;location;lat;lon;timestamp;pressure;altitude;pressure_sealevel;temperature;humidity
20628;BME280;10473;42.734;24.258;2022-12-07T00:02:11;91857.81;;;6.14;77.25
20628;BME280;10473;42.734;24.258;2022-12-07T00:04:39;91856.25;;;6.13;77.39
20628;BME280;10473;42.734;24.258;2022-12-07T00:07:09;91861.94;;;5.99;76.91
20628;BME280;10473;42.734;24.258;2022-12-07T00:09:38;91865.09;;;6.05;76.63
20628;BME280;10473;42.734;24.258;2022-12-07T00:12:08;91857.63;;;6.07;76.45
20628;BME280;10473;42.734;24.258;2022-12-07T00:14:35;91856.75;;;6.03;77.77
20628;BME280;10473;42.734;24.258;2022-12-07T00:17:03;91850.56;;;5.95;77.45
20628;BME280;10473;42.734;24.258;2022-12-07T00:19:31;91850.16;;;6.09;76.86
20628;BME280;10473;42.734;24.258;2022-12-07T00:21:58;91851.69;;;6.10;77.15
20628;BME280;10473;42.734;24.258;2022-12-07T00:24:26;91854.56;;;6.05;77.28
20628;BME280;10473;42.734;24.258;2022-12-07T00:26:55;91846.69;;;6.05;76.68
20628;BME280;10473;42.734;24.258;2022-12-07T00:29:23;91849.66;;;6.03;77.23
20628;BME280;10473;42.734;24.258;2022-12-07T00:31:51;91855.44;;;6.09;77.62
20628;BME280;10473;42.734;24.258;2022-12-07T00:34:20;91853.88;;;6.08;76.98
20628;BME280;10473;42.734;24.258;2022-12-07T00:36:49;91849.31;;;6.05;77.23
20628;BME280;10473;42.734;24.258;2022-12-07T00:39:17;91842.63;;;5.80;77.65
20628;BME280;10473;42.734;24.258;2022-12-07T00:41:45;91839.00;;;5.84;77.13
20628;BME280;10473;42.734;24.258;2022-12-07T00:44:14;91837.06;;;5.81;77.72
20628;BME280;10473;42.734;24.258;2022-12-07T00:46:42;91836.38;;;5.84;77.71
20628;BME280;10473;42.734;24.258;2022-12-07T00:49:11;91837.00;;;5.93;77.99
20628;BME280;10473;42.734;24.258;2022-12-07T00:51:39;91837.84;;;5.97;76.72
20628;BME280;10473;42.734;24.258;2022-12-07T00:54:07;91833.84;;;5.88;77.61
20628;BME280;10473;42.734;24.258;2022-12-07T00:56:35;91813.41;;;5.81;78.13
20628;BME280;10473;42.734;24.258;2022-12-07T00:59:03;91817.56;;;5.98;77.51
20628;BME280;10473;42.734;24.258;2022-12-07T01:01:34;91813.50;;;5.85;77.61
20628;BME280;10473;42.734;24.258;2022-12-07T01:04:03;91824.19;;;5.92;78.12
20628;BME280;10473;42.734;24.258;2022-12-07T01:06:31;91827.41;;;6.01;77.75
20628;BME280;10473;42.734;24.258;2022-12-07T01:09:00;91826.41;;;5.90;77.96
20628;BME280;10473;42.734;24.258;2022-12-07T01:11:29;91825.91;;;6.00;77.63
20628;BME280;10473;42.734;24.258;2022-12-07T01:13:59;91818.25;;;5.95;77.53
20628;BME280;10473;42.734;24.258;2022-12-07T01:16:29;91814.06;;;5.78;78.21
20628;BME280;10473;42.734;24.258;2022-12-07T01:19:00;91816.91;;;6.01;77.93
20628;BME280;10473;42.734;24.258;2022-12-07T01:21:30;91816.28;;;5.92;77.62
20628;BME280;10473;42.734;24.258;2022-12-07T01:24:01;91825.19;;;6.03;77.55
20628;BME280;10473;42.734;24.258;2022-12-07T01:26:29;91824.69;;;6.13;77.57
20628;BME280;10473;42.734;24.258;2022-12-07T01:28:57;91821.63;;;5.95;77.40
20628;BME280;10473;42.734;24.258;2022-12-07T01:31:27;91816.91;;;6.01;77.12
20628;BME280;10473;42.734;24.258;2022-12-07T01:33:56;91822.06;;;5.97;77.18
20628;BME280;10473;42.734;24.258;2022-12-07T01:36:28;91814.78;;;5.91;77.86
20628;BME280;10473;42.734;24.258;2022-12-07T01:38:57;91812.31;;;5.98;78.28
20628;BME280;10473;42.734;24.258;2022-12-07T01:41:27;91803.16;;;5.92;77.34
20628;BME280;10473;42.734;24.258;2022-12-07T01:44:14;91807.91;;;6.02;77.63
20628;BME280;10473;42.734;24.258;2022-12-07T01:46:43;91800.03;;;6.02;77.54
20628;BME280;10473;42.734;24.258;2022-12-07T01:49:16;91799.41;;;5.93;77.58
20628;BME280;10473;42.734;24.258;2022-12-07T01:51:47;91803.75;;;6.01;77.48
20628;BME280;10473;42.734;24.258;2022-12-07T01:54:17;91801.53;;;6.03;77.36
20628;BME280;10473;42.734;24.258;2022-12-07T01:56:49;91797.84;;;6.04;78.32
20628;BME280;10473;42.734;24.258;2022-12-07T01:59:20;91791.63;;;6.12;76.79
20628;BME280;10473;42.734;24.258;2022-12-07T02:01:49;91795.34;;;6.11;76.84
20628;BME280;10473;42.734;24.258;2022-12-07T02:04:18;91785.50;;;6.08;77.44
20628;BME280;10473;42.734;24.258;2022-12-07T02:06:47;91795.88;;;6.01;77.57
20628;BME280;10473;42.734;24.258;2022-12-07T02:09:15;91787.38;;;6.07;77.68
20628;BME280;10473;42.734;24.258;2022-12-07T02:11:42;91782.06;;;6.04;77.81
20628;BME280;10473;42.734;24.258;2022-12-07T02:14:10;91772.88;;;5.98;77.93
20628;BME280;10473;42.734;24.258;2022-12-07T02:16:45;91787.72;;;6.06;76.90
20628;BME280;10473;42.734;24.258;2022-12-07T02:19:45;91781.63;;;6.02;77.21
20628;BME280;10473;42.734;24.258;2022-12-07T02:22:33;91783.06;;;5.99;77.82
20628;BME280;10473;42.734;24.258;2022-12-07T02:25:13;91785.59;;;5.96;76.85
20628;BME280;10473;42.734;24.258;2022-12-07T02:27:50;91781.72;;;5.90;77.49
20628;BME280;10473;42.734;24.258;2022-12-07T02:30:22;91779.94;;;5.94;77.05
20628;BME280;10473;42.734;24.258;2022-12-07T02:32:59;91774.22;;;5.92;77.98
20628;BME280;10473;42.734;24.258;2022-12-07T02:35:32;91772.13;;;5.97;77.39
20628;BME280;10473;42.734;24.258;2022-12-07T02:38:05;91777.31;;;5.94;77.06
20628;BME280;10473;42.734;24.258;2022-12-07T02:40:38;91772.44;;;5.80;78.04
20628;BME280;10473;42.734;24.258;2022-12-07T02:43:12;91776.69;;;5.85;78.37
20628;BME280;10473;42.734;24.258;2022-12-07T02:45:44;91775.66;;;5.89;78.13
20628;BME280;10473;42.734;24.258;2022-12-07T02:48:15;91770.59;;;5.81;77.67
20628;BME280;10473;42.734;24.258;2022-12-07T02:50:45;91762.97;;;5.91;78.07
20628;BME280;10473;42.734;24.258;2022-12-07T02:53:35;91757.19;;;5.86;77.75
20628;BME280;10473;42.734;24.258;2022-12-07T02:56:07;91766.19;;;5.85;78.43
20628;BME280;10473;42.734;24.258;2022-12-07T02:58:47;91767.19;;;5.96;78.26
20628;BME280;10473;42.734;24.258;2022-12-07T03:01:27;91765.69;;;5.95;77.98
20628;BME280;10473;42.734;24.258;2022-12-07T03:04:05;91771.59;;;5.92;77.52
20628;BME280;10473;42.734;24.258;2022-12-07T03:06:43;91768.72;;;5.97;77.43
20628;BME280;10473;42.734;24.258;2022-12-07T03:09:20;91779.88;;;5.78;78.84
20628;BME280;10473;42.734;24.258;2022-12-07T03:11:56;91766.94;;;5.85;78.55
20628;BME280;10473;42.734;24.258;2022-12-07T03:14:30;91778.78;;;5.79;78.53
20628;BME280;10473;42.734;24.258;2022-12-07T03:17:04;91770.03;;;5.75;78.57
20628;BME280;10473;42.734;24.258;2022-12-07T03:19:35;91773.53;;;5.79;78.06
20628;BME280;10473;42.734;24.258;2022-12-07T03:22:07;91767.75;;;5.74;77.87
20628;BME280;10473;42.734;24.258;2022-12-07T03:24:40;91760.06;;;5.81;78.10
20628;BME280;10473;42.734;24.258;2022-12-07T03:27:14;91765.09;;;5.74;78.64
20628;BME280;10473;42.734;24.258;2022-12-07T03:29:47;91771.22;;;5.78;78.78
20628;BME280;10473;42.734;24.258;2022-12-07T03:32:22;91773.81;;;5.90;78.30
20628;BME280;10473;42.734;24.258;2022-12-07T03:34:54;91757.00;;;5.79;78.71
20628;BME280;10473;42.734;24.258;2022-12-07T03:37:29;91759.41;;;5.84;78.85
20628;BME280;10473;42.734;24.258;2022-12-07T03:40:03;91756.56;;;5.77;77.67
20628;BME280;10473;42.734;24.258;2022-12-07T03:42:34;91751.66;;;5.60;78.72
20628;BME280;10473;42.734;24.258;2022-12-07T03:45:03;91751.56;;;5.72;79.56
20628;BME280;10473;42.734;24.258;2022-12-07T03:47:36;91741.91;;;5.76;78.63
20628;BME280;10473;42.734;24.258;2022-12-07T03:50:13;91747.16;;;5.76;79.12
20628;BME280;10473;42.734;24.258;2022-12-07T03:52:47;91754.72;;;5.77;78.57
20628;BME280;10473;42.734;24.258;2022-12-07T03:55:21;91753.91;;;5.61;79.44
20628;BME280;10473;42.734;24.258;2022-12-07T03:57:53;91746.88;;;5.65;79.22
20628;BME280;10473;42.734;24.258;2022-12-07T04:00:23;91745.09;;;5.54;79.40
20628;BME280;10473;42.734;24.258;2022-12-07T04:02:52;91745.38;;;5.64;79.27
20628;BME280;10473;42.734;24.258;2022-12-07T04:05:20;91746.56;;;5.67;78.50
20628;BME280;10473;42.734;24.258;2022-12-07T04:07:48;91747.47;;;5.59;78.48
20628;BME280;10473;42.734;24.258;2022-12-07T04:10:16;91737.28;;;5.42;79.67
20628;BME280;10473;42.734;24.258;2022-12-07T04:12:44;91746.06;;;5.34;79.89
20628;BME280;10473;42.734;24.258;2022-12-07T04:15:12;91749.75;;;5.45;80.49
20628;BME280;10473;42.734;24.258;2022-12-07T04:17:40;91745.50;;;5.40;79.45
20628;BME280;10473;42.734;24.258;2022-12-07T04:20:10;91747.97;;;5.49;79.71
20628;BME280;10473;42.734;24.258;2022-12-07T04:22:38;91743.97;;;5.39;79.71
20628;BME280;10473;42.734;24.258;2022-12-07T04:25:06;91733.03;;;5.22;80.02
20628;BME280;10473;42.734;24.258;2022-12-07T04:27:34;91736.69;;;5.05;80.41
20628;BME280;10473;42.734;24.258;2022-12-07T04:30:03;91742.66;;;5.18;80.10
20628;BME280;10473;42.734;24.258;2022-12-07T04:32:31;91748.28;;;5.32;79.00
20628;BME280;10473;42.734;24.258;2022-12-07T04:34:58;91746.56;;;5.24;79.41
20628;BME280;10473;42.734;24.258;2022-12-07T04:37:28;91748.19;;;5.28;79.63
20628;BME280;10473;42.734;24.258;2022-12-07T04:39:55;91752.91;;;5.23;79.01
20628;BME280;10473;42.734;24.258;2022-12-07T04:42:23;91748.88;;;5.25;79.68
20628;BME280;10473;42.734;24.258;2022-12-07T04:44:51;91753.25;;;5.21;79.60
20628;BME280;10473;42.734;24.258;2022-12-07T04:47:19;91758.63;;;5.25;79.68
20628;BME280;10473;42.734;24.258;2022-12-07T04:49:47;91753.94;;;5.18;78.77
20628;BME280;10473;42.734;24.258;2022-12-07T04:52:14;91749.69;;;5.14;78.92
20628;BME280;10473;42.734;24.258;2022-12-07T04:54:43;91752.50;;;5.21;79.49
20628;BME280;10473;42.734;24.258;2022-12-07T04:57:11;91754.03;;;5.22;78.91
20628;BME280;10473;42.734;24.258;2022-12-07T04:59:39;91750.38;;;5.26;78.65
20628;BME280;10473;42.734;24.258;2022-12-07T05:02:07;91745.38;;;5.21;78.78
20628;BME280;10473;42.734;24.258;2022-12-07T05:04:34;91748.78;;;5.22;77.90
20628;BME280;10473;42.734;24.258;2022-12-07T05:07:02;91749.88;;;5.21;78.64
20628;BME280;10473;42.734;24.258;2022-12-07T05:09:30;91742.66;;;5.18;78.49
20628;BME280;10473;42.734;24.258;2022-12-07T05:11:59;91752.13;;;5.07;77.81
20628;BME280;10473;42.734;24.258;2022-12-07T05:14:26;91754.59;;;5.15;79.00
20628;BME280;10473;42.734;24.258;2022-12-07T05:16:54;91751.69;;;5.05;77.78
20628;BME280;10473;42.734;24.258;2022-12-07T05:19:22;91753.56;;;5.04;79.33
20628;BME280;10473;42.734;24.258;2022-12-07T05:21:49;91748.47;;;4.96;79.71
20628;BME280;10473;42.734;24.258;2022-12-07T05:24:17;91761.34;;;5.01;78.89
20628;BME280;10473;42.734;24.258;2022-12-07T05:26:45;91758.72;;;5.01;79.25
20628;BME280;10473;42.734;24.258;2022-12-07T05:29:16;91747.59;;;4.92;78.50
20628;BME280;10473;42.734;24.258;2022-12-07T05:31:45;91753.06;;;4.87;79.26
20628;BME280;10473;42.734;24.258;2022-12-07T05:34:13;91745.84;;;4.84;79.01
20628;BME280;10473;42.734;24.258;2022-12-07T05:36:40;91747.81;;;4.87;79.15
20628;BME280;10473;42.734;24.258;2022-12-07T05:39:08;91756.72;;;4.70;79.09
20628;BME280;10473;42.734;24.258;2022-12-07T05:41:36;91748.38;;;4.80;79.23
20628;BME280;10473;42.734;24.258;2022-12-07T05:44:22;91756.59;;;4.79;79.69
20628;BME280;10473;42.734;24.258;2022-12-07T05:46:50;91747.28;;;4.81;79.41
20628;BME280;10473;42.734;24.258;2022-12-07T05:49:18;91745.84;;;4.84;79.89
20628;BME280;10473;42.734;24.258;2022-12-07T05:51:45;91754.59;;;4.88;80.15
20628;BME280;10473;42.734;24.258;2022-12-07T05:54:13;91749.16;;;4.81;79.90
20628;BME280;10473;42.734;24.258;2022-12-07T05:56:41;91748.06;;;4.82;80.68
20628;BME280;10473;42.734;24.258;2022-12-07T05:59:09;91757.88;;;4.85;80.18
20628;BME280;10473;42.734;24.258;2022-12-07T06:01:53;91754.78;;;4.95;80.06
20628;BME280;10473;42.734;24.258;2022-12-07T06:04:21;91752.94;;;4.95;79.48
20628;BME280;10473;42.734;24.258;2022-12-07T06:06:49;91744.28;;;4.95;79.41
20628;BME280;10473;42.734;24.258;2022-12-07T06:09:17;91742.75;;;4.94;80.93
20628;BME280;10473;42.734;24.258;2022-12-07T06:11:45;91744.50;;;5.02;80.14
20628;BME280;10473;42.734;24.258;2022-12-07T06:14:30;91737.91;;;5.08;79.79
20628;BME280;10473;42.734;24.258;2022-12-07T06:16:59;91735.28;;;5.08;80.05
20628;BME280;10473;42.734;24.258;2022-12-07T06:19:27;91750.38;;;5.11;79.01
20628;BME280;10473;42.734;24.258;2022-12-07T06:21:55;91744.88;;;5.16;79.70
20628;BME280;10473;42.734;24.258;2022-12-07T06:24:23;91742.00;;;5.21;79.23
20628;BME280;10473;42.734;24.258;2022-12-07T06:26:51;91747.16;;;5.17;78.86
20628;BME280;10473;42.734;24.258;2022-12-07T06:29:18;91750.38;;;5.26;79.76
20628;BME280;10473;42.734;24.258;2022-12-07T06:31:46;91755.56;;;5.23;79.99
20628;BME280;10473;42.734;24.258;2022-12-07T06:34:17;91755.38;;;5.16;80.91
20628;BME280;10473;42.734;24.258;2022-12-07T06:36:45;91749.97;;;4.97;81.19
20628;BME280;10473;42.734;24.258;2022-12-07T06:39:17;91757.56;;;5.14;81.30
20628;BME280;10473;42.734;24.258;2022-12-07T06:41:45;91761.81;;;5.18;80.08
20628;BME280;10473;42.734;24.258;2022-12-07T06:44:13;91762.09;;;5.29;81.35
20628;BME280;10473;42.734;24.258;2022-12-07T06:46:41;91764.03;;;5.32;80.98
20628;BME280;10473;42.734;24.258;2022-12-07T06:49:08;91761.28;;;5.56;80.65
20628;BME280;10473;42.734;24.258;2022-12-07T06:51:38;91764.59;;;5.53;80.61
20628;BME280;10473;42.734;24.258;2022-12-07T06:54:07;91769.09;;;5.68;80.01
20628;BME280;10473;42.734;24.258;2022-12-07T06:56:35;91776.38;;;5.59;80.12
20628;BME280;10473;42.734;24.258;2022-12-07T06:59:03;91774.53;;;5.75;80.88
20628;BME280;10473;42.734;24.258;2022-12-07T07:01:32;91775.41;;;5.79;80.32
20628;BME280;10473;42.734;24.258;2022-12-07T07:04:00;91772.31;;;5.89;79.38
20628;BME280;10473;42.734;24.258;2022-12-07T07:06:28;91773.97;;;5.97;79.78
20628;BME280;10473;42.734;24.258;2022-12-07T07:08:57;91775.34;;;5.91;80.54
20628;BME280;10473;42.734;24.258;2022-12-07T07:11:24;91775.94;;;6.00;79.31
20628;BME280;10473;42.734;24.258;2022-12-07T07:13:52;91771.09;;;6.02;79.97
20628;BME280;10473;42.734;24.258;2022-12-07T07:16:23;91774.16;;;6.04;78.97
20628;BME280;10473;42.734;24.258;2022-12-07T07:18:51;91777.38;;;6.13;79.58
20628;BME280;10473;42.734;24.258;2022-12-07T07:21:19;91775.34;;;6.06;78.63
20628;BME280;10473;42.734;24.258;2022-12-07T07:23:46;91770.84;;;6.22;78.05
20628;BME280;10473;42.734;24.258;2022-12-07T07:26:15;91781.69;;;6.21;77.84
20628;BME280;10473;42.734;24.258;2022-12-07T07:28:45;91778.47;;;6.27;78.73
20628;BME280;10473;42.734;24.258;2022-12-07T07:31:13;91772.34;;;6.23;78.80
20628;BME280;10473;42.734;24.258;2022-12-07T07:33:41;91781.59;;;6.33;78.35
20628;BME280;10473;42.734;24.258;2022-12-07T07:36:09;91786.59;;;6.38;78.55
20628;BME280;10473;42.734;24.258;2022-12-07T07:38:36;91778.69;;;6.38;78.30
20628;BME280;10473;42.734;24.258;2022-12-07T07:41:04;91787.03;;;6.40;79.03
20628;BME280;10473;42.734;24.258;2022-12-07T07:43:33;91784.81;;;6.42;79.00
20628;BME280;10473;42.734;24.258;2022-12-07T07:46:01;91785.50;;;6.39;78.25
20628;BME280;10473;42.734;24.258;2022-12-07T07:48:29;91779.72;;;6.49;79.16
20628;BME280;10473;42.734;24.258;2022-12-07T07:50:57;91770.66;;;6.31;79.68
20628;BME280;10473;42.734;24.258;2022-12-07T07:53:24;91777.16;;;6.37;79.08
20628;BME280;10473;42.734;24.258;2022-12-07T07:55:52;91760.47;;;6.29;79.19
20628;BME280;10473;42.734;24.258;2022-12-07T07:58:21;91773.44;;;6.38;79.47
20628;BME280;10473;42.734;24.258;2022-12-07T08:00:51;91764.47;;;6.39;78.19
20628;BME280;10473;42.734;24.258;2022-12-07T08:03:19;91765.91;;;6.21;79.04
20628;BME280;10473;42.734;24.258;2022-12-07T08:05:47;91755.00;;;6.38;78.69
20628;BME280;10473;42.734;24.258;2022-12-07T08:08:15;91766.44;;;6.61;78.41
20628;BME280;10473;42.734;24.258;2022-12-07T08:10:42;91764.19;;;6.78;78.61
20628;BME280;10473;42.734;24.258;2022-12-07T08:13:10;91768.50;;;6.86;77.53
20628;BME280;10473;42.734;24.258;2022-12-07T08:15:40;91772.59;;;7.03;76.63
20628;BME280;10473;42.734;24.258;2022-12-07T08:18:11;91773.69;;;7.21;77.03
20628;BME280;10473;42.734;24.258;2022-12-07T08:20:42;91758.88;;;7.32;76.63
20628;BME280;10473;42.734;24.258;2022-12-07T08:23:10;91772.00;;;7.51;75.71
20628;BME280;10473;42.734;24.258;2022-12-07T08:25:38;91760.38;;;7.52;74.93
20628;BME280;10473;42.734;24.258;2022-12-07T08:28:06;91768.25;;;7.29;75.99
20628;BME280;10473;42.734;24.258;2022-12-07T08:30:34;91767.88;;;7.31;76.11
20628;BME280;10473;42.734;24.258;2022-12-07T08:33:02;91769.41;;;7.32;76.15
20628;BME280;10473;42.734;24.258;2022-12-07T08:35:32;91763.13;;;7.59;75.81
20628;BME280;10473;42.734;24.258;2022-12-07T08:38:00;91768.94;;;7.68;75.91
20628;BME280;10473;42.734;24.258;2022-12-07T08:40:28;91769.66;;;7.87;74.84
20628;BME280;10473;42.734;24.258;2022-12-07T08:42:56;91771.94;;;7.89;74.26
20628;BME280;10473;42.734;24.258;2022-12-07T08:45:23;91766.22;;;8.06;75.06
20628;BME280;10473;42.734;24.258;2022-12-07T08:47:54;91760.28;;;8.12;73.82
20628;BME280;10473;42.734;24.258;2022-12-07T08:50:23;91760.56;;;8.52;74.55
20628;BME280;10473;42.734;24.258;2022-12-07T08:52:54;91748.28;;;8.93;72.59
20628;BME280;10473;42.734;24.258;2022-12-07T08:55:23;91749.16;;;9.30;70.96
20628;BME280;10473;42.734;24.258;2022-12-07T08:57:51;91750.69;;;9.34;70.22
20628;BME280;10473;42.734;24.258;2022-12-07T09:00:19;91740.28;;;9.48;69.30
20628;BME280;10473;42.734;24.258;2022-12-07T09:02:47;91738.69;;;9.77;68.03
20628;BME280;10473;42.734;24.258;2022-12-07T09:05:15;91744.72;;;10.10;67.32
20628;BME280;10473;42.734;24.258;2022-12-07T09:07:43;91740.09;;;10.51;65.16
20628;BME280;10473;42.734;24.258;2022-12-07T09:10:13;91733.22;;;10.97;64.25
20628;BME280;10473;42.734;24.258;2022-12-07T09:12:41;91745.13;;;11.31;63.05
20628;BME280;10473;42.734;24.258;2022-12-07T09:15:09;91754.34;;;11.61;61.36
20628;BME280;10473;42.734;24.258;2022-12-07T09:17:37;91747.28;;;12.07;61.47
20628;BME280;10473;42.734;24.258;2022-12-07T09:20:05;91748.78;;;12.15;60.19
20628;BME280;10473;42.734;24.258;2022-12-07T09:22:33;91751.06;;;12.20;59.42
20628;BME280;10473;42.734;24.258;2022-12-07T09:25:01;91748.41;;;12.20;58.92
20628;BME280;10473;42.734;24.258;2022-12-07T09:27:31;91738.88;;;11.88;59.58
20628;BME280;10473;42.734;24.258;2022-12-07T09:29:58;91748.03;;;12.15;58.74
20628;BME280;10473;42.734;24.258;2022-12-07T09:32:26;91741.94;;;11.97;58.88
20628;BME280;10473;42.734;24.258;2022-12-07T09:34:54;91735.81;;;11.65;59.94
20628;BME280;10473;42.734;24.258;2022-12-07T09:37:23;91734.75;;;12.01;59.78
20628;BME280;10473;42.734;24.258;2022-12-07T09:39:51;91732.84;;;12.15;58.52
20628;BME280;10473;42.734;24.258;2022-12-07T09:42:27;91726.78;;;12.22;59.44
20628;BME280;10473;42.734;24.258;2022-12-07T09:44:58;91727.53;;;12.85;58.79
20628;BME280;10473;42.734;24.258;2022-12-07T09:47:26;91731.09;;;13.68;55.84
20628;BME280;10473;42.734;24.258;2022-12-07T09:50:03;91728.06;;;14.82;53.58
20628;BME280;10473;42.734;24.258;2022-12-07T09:52:31;91720.69;;;15.34;51.29
20628;BME280;10473;42.734;24.258;2022-12-07T09:54:59;91713.69;;;17.06;48.69
20628;BME280;10473;42.734;24.258;2022-12-07T09:57:29;91719.50;;;18.57;44.46
20628;BME280;10473;42.734;24.258;2022-12-07T10:00:00;91718.44;;;19.47;43.28
20628;BME280;10473;42.734;24.258;2022-12-07T10:02:36;91723.16;;;20.78;41.89
20628;BME280;10473;42.734;24.258;2022-12-07T10:05:06;91723.47;;;20.80;38.62
20628;BME280;10473;42.734;24.258;2022-12-07T10:07:34;91709.31;;;21.82;37.59
20628;BME280;10473;42.734;24.258;2022-12-07T10:10:03;91709.97;;;22.38;37.57
20628;BME280;10473;42.734;24.258;2022-12-07T10:12:52;91702.72;;;22.47;35.64
20628;BME280;10473;42.734;24.258;2022-12-07T10:15:41;91707.91;;;21.90;35.57
20628;BME280;10473;42.734;24.258;2022-12-07T10:21:20;91700.63;;;20.60;36.95
20628;BME280;10473;42.734;24.258;2022-12-07T10:24:00;91699.00;;;20.12;38.51
20628;BME280;10473;42.734;24.258;2022-12-07T10:26:34;91695.13;;;19.85;38.98
20628;BME280;10473;42.734;24.258;2022-12-07T10:29:14;91695.00;;;18.87;40.55
20628;BME280;10473;42.734;24.258;2022-12-07T10:31:49;91685.31;;;18.25;42.00
20628;BME280;10473;42.734;24.258;2022-12-07T10:34:39;91682.13;;;17.59;43.81
20628;BME280;10473;42.734;24.258;2022-12-07T10:37:14;91679.03;;;17.61;44.24
20628;BME280;10473;42.734;24.258;2022-12-07T10:39:53;91679.94;;;17.54;43.47
20628;BME280;10473;42.734;24.258;2022-12-07T10:42:23;91683.06;;;17.69;43.82
20628;BME280;10473;42.734;24.258;2022-12-07T10:45:08;91670.22;;;17.80;43.04
20628;BME280;10473;42.734;24.258;2022-12-07T10:47:43;91671.50;;;18.27;43.39
20628;BME280;10473;42.734;24.258;2022-12-07T10:50:52;91669.16;;;18.93;41.06
20628;BME280;10473;42.734;24.258;2022-12-07T10:53:42;91672.31;;;20.55;38.98
20628;BME280;10473;42.734;24.258;2022-12-07T10:59:31;91659.34;;;21.90;35.24
20628;BME280;10473;42.734;24.258;2022-12-07T11:02:24;91662.84;;;22.60;33.91
20628;BME280;10473;42.734;24.258;2022-12-07T11:05:07;91659.59;;;23.59;32.51
20628;BME280;10473;42.734;24.258;2022-12-07T11:07:59;91659.56;;;24.73;31.22
20628;BME280;10473;42.734;24.258;2022-12-07T11:10:38;91659.22;;;26.12;29.80
20628;BME280;10473;42.734;24.258;2022-12-07T11:13:28;91649.94;;;26.47;28.15
20628;BME280;10473;42.734;24.258;2022-12-07T11:16:09;91643.84;;;25.56;29.22
20628;BME280;10473;42.734;24.258;2022-12-07T11:18:51;91639.56;;;24.52;30.34
20628;BME280;10473;42.734;24.258;2022-12-07T11:21:28;91639.16;;;26.53;28.76
20628;BME280;10473;42.734;24.258;2022-12-07T11:24:04;91640.50;;;26.28;28.70
20628;BME280;10473;42.734;24.258;2022-12-07T11:26:45;91632.81;;;26.27;28.95
20628;BME280;10473;42.734;24.258;2022-12-07T11:29:27;91632.41;;;26.77;28.10
20628;BME280;10473;42.734;24.258;2022-12-07T11:32:01;91626.97;;;26.05;28.44
20628;BME280;10473;42.734;24.258;2022-12-07T11:34:39;91632.41;;;26.34;28.78
20628;BME280;10473;42.734;24.258;2022-12-07T11:37:16;91633.75;;;26.67;28.74
20628;BME280;10473;42.734;24.258;2022-12-07T11:39:49;91630.38;;;26.43;28.34
20628;BME280;10473;42.734;24.258;2022-12-07T11:42:21;91624.34;;;26.68;28.25
20628;BME280;10473;42.734;24.258;2022-12-07T11:44:53;91619.47;;;26.72;27.85
20628;BME280;10473;42.734;24.258;2022-12-07T11:47:27;91620.41;;;26.40;28.86
20628;BME280;10473;42.734;24.258;2022-12-07T11:50:05;91614.06;;;25.23;29.48
20628;BME280;10473;42.734;24.258;2022-12-07T11:52:45;91609.25;;;24.30;30.14
20628;BME280;10473;42.734;24.258;2022-12-07T11:55:19;91599.28;;;22.86;32.24
20628;BME280;10473;42.734;24.258;2022-12-07T11:57:52;91589.72;;;22.15;33.37
20628;BME280;10473;42.734;24.258;2022-12-07T12:00:22;91585.94;;;21.52;34.69
20628;BME280;10473;42.734;24.258;2022-12-07T12:02:54;91580.00;;;20.55;35.83
20628;BME280;10473;42.734;24.258;2022-12-07T12:05:25;91584.47;;;20.24;36.69
20628;BME280;10473;42.734;24.258;2022-12-07T12:08:01;91578.66;;;20.38;37.74
20628;BME280;10473;42.734;24.258;2022-12-07T12:10:40;91579.25;;;19.54;38.43
20628;BME280;10473;42.734;24.258;2022-12-07T12:13:37;91582.59;;;19.71;38.29
20628;BME280;10473;42.734;24.258;2022-12-07T12:16:27;91583.63;;;19.36;40.55
20628;BME280;10473;42.734;24.258;2022-12-07T12:19:21;91581.50;;;19.43;38.98
20628;BME280;10473;42.734;24.258;2022-12-07T12:21:55;91578.81;;;19.15;39.49
20628;BME280;10473;42.734;24.258;2022-12-07T12:24:26;91572.41;;;19.91;39.41
20628;BME280;10473;42.734;24.258;2022-12-07T12:27:01;91569.41;;;19.76;38.91
20628;BME280;10473;42.734;24.258;2022-12-07T12:29:34;91566.81;;;19.73;38.86
20628;BME280;10473;42.734;24.258;2022-12-07T12:32:14;91564.63;;;19.43;39.75
20628;BME280;10473;42.734;24.258;2022-12-07T12:34:59;91561.75;;;18.93;39.93
20628;BME280;10473;42.734;24.258;2022-12-07T12:37:45;91561.47;;;19.03;40.47
20628;BME280;10473;42.734;24.258;2022-12-07T12:43:49;91559.25;;;18.41;41.37
20628;BME280;10473;42.734;24.258;2022-12-07T12:46:47;91554.03;;;17.86;43.62
20628;BME280;10473;42.734;24.258;2022-12-07T12:49:43;91555.81;;;17.41;44.47
20628;BME280;10473;42.734;24.258;2022-12-07T12:55:20;91550.59;;;16.33;47.51
20628;BME280;10473;42.734;24.258;2022-12-07T13:04:49;91548.97;;;15.44;49.41
20628;BME280;10473;42.734;24.258;2022-12-07T13:07:58;91563.09;;;15.11;50.43
20628;BME280;10473;42.734;24.258;2022-12-07T13:10:45;91566.44;;;14.51;51.72
20628;BME280;10473;42.734;24.258;2022-12-07T13:13:31;91558.03;;;14.16;52.75
20628;BME280;10473;42.734;24.258;2022-12-07T13:16:39;91568.16;;;13.87;53.78
20628;BME280;10473;42.734;24.258;2022-12-07T13:22:46;91559.81;;;13.27;55.65
20628;BME280;10473;42.734;24.258;2022-12-07T13:25:23;91563.75;;;13.09;55.39
20628;BME280;10473;42.734;24.258;2022-12-07T13:27:58;91564.16;;;12.97;56.11
20628;BME280;10473;42.734;24.258;2022-12-07T13:30:29;91565.75;;;12.73;56.70
20628;BME280;10473;42.734;24.258;2022-12-07T13:33:25;91568.03;;;12.68;57.38
20628;BME280;10473;42.734;24.258;2022-12-07T13:35:55;91561.22;;;12.67;57.37
20628;BME280;10473;42.734;24.258;2022-12-07T13:38:52;91565.44;;;12.50;58.19
20628;BME280;10473;42.734;24.258;2022-12-07T13:41:21;91559.78;;;12.45;57.62
20628;BME280;10473;42.734;24.258;2022-12-07T13:43:55;91556.78;;;12.22;58.75
20628;BME280;10473;42.734;24.258;2022-12-07T13:46:40;91559.09;;;11.99;59.23
20628;BME280;10473;42.734;24.258;2022-12-07T13:49:20;91555.72;;;11.81;58.99